createdAt,value
2018-08-31T00:02:31.958Z,16.70
2018-08-31T00:05:38.640Z,16.70
2018-08-31T00:10:25.576Z,16.80
2018-08-31T00:12:53.088Z,16.80
2018-08-31T00:15:20.623Z,16.80
2018-08-31T00:17:48.189Z,16.80
2018-08-31T00:20:15.745Z,16.90
2018-08-31T00:22:43.309Z,16.80
2018-08-31T00:25:22.341Z,16.80
2018-08-31T00:28:01.191Z,16.90
2018-08-31T00:30:40.116Z,16.90
2018-08-31T00:33:19.136Z,16.90
2018-08-31T00:38:00.969Z,16.90
2018-08-31T00:40:39.540Z,16.90
2018-08-31T00:44:18.199Z,16.80
2018-08-31T00:46:45.940Z,16.80
2018-08-31T00:49:13.513Z,16.80
2018-08-31T00:51:41.023Z,16.80
2018-08-31T00:54:08.555Z,16.80
2018-08-31T00:56:36.060Z,16.80
2018-08-31T00:59:03.676Z,16.80
2018-08-31T01:01:31.345Z,16.80
2018-08-31T01:03:58.864Z,16.80
2018-08-31T01:06:26.535Z,16.80
2018-08-31T01:08:54.131Z,16.80
2018-08-31T01:11:21.626Z,16.70
2018-08-31T01:13:49.488Z,16.60
2018-08-31T01:16:17.084Z,16.60
2018-08-31T01:18:44.804Z,16.60
2018-08-31T01:21:12.340Z,16.60
2018-08-31T01:23:39.887Z,16.50
2018-08-31T01:26:07.540Z,16.50
2018-08-31T01:28:35.112Z,16.40
2018-08-31T01:31:02.897Z,16.40
2018-08-31T01:33:30.507Z,16.40
2018-08-31T01:35:58.163Z,16.40
2018-08-31T01:38:25.836Z,16.40
2018-08-31T01:40:53.681Z,16.40
2018-08-31T01:43:21.398Z,16.30
2018-08-31T01:45:48.911Z,16.20
2018-08-31T01:48:16.465Z,16.10
2018-08-31T01:50:49.772Z,16.10
2018-08-31T01:53:17.651Z,16.20
2018-08-31T01:55:45.180Z,16.20
2018-08-31T01:58:12.763Z,16.20
2018-08-31T02:00:40.340Z,16.20
2018-08-31T02:03:07.999Z,16.30
2018-08-31T02:05:35.644Z,16.30
2018-08-31T02:08:03.655Z,16.30
2018-08-31T02:10:31.177Z,16.30
2018-08-31T02:12:58.772Z,16.40
2018-08-31T02:15:26.393Z,16.40
2018-08-31T02:17:53.951Z,16.50
2018-08-31T02:20:21.477Z,16.50
2018-08-31T02:22:49.210Z,16.50
2018-08-31T02:25:16.883Z,16.60
2018-08-31T02:27:44.497Z,16.60
2018-08-31T02:30:12.031Z,16.60
2018-08-31T02:32:39.574Z,16.60
2018-08-31T02:35:07.407Z,16.60
2018-08-31T02:37:35.266Z,16.50
2018-08-31T02:40:03.073Z,16.50
2018-08-31T02:42:30.696Z,16.50
2018-08-31T02:44:58.382Z,16.40
2018-08-31T02:47:26.122Z,16.40
2018-08-31T02:49:53.782Z,16.30
2018-08-31T02:52:21.443Z,16.30
2018-08-31T02:54:49.206Z,16.20
2018-08-31T02:57:16.776Z,16.20
2018-08-31T02:59:44.432Z,16.20
2018-08-31T03:02:12.210Z,16.20
2018-08-31T03:04:39.851Z,16.20
2018-08-31T03:07:07.573Z,16.20
2018-08-31T03:09:35.131Z,16.20
2018-08-31T03:12:02.643Z,16.20
2018-08-31T03:14:30.424Z,16.20
2018-08-31T03:16:58.182Z,16.20
2018-08-31T03:19:25.763Z,16.10
2018-08-31T03:21:54.625Z,16.10
2018-08-31T03:24:22.302Z,16.10
2018-08-31T03:26:50.057Z,16.00
2018-08-31T03:29:17.611Z,16.00
2018-08-31T03:31:45.243Z,15.90
2018-08-31T03:34:12.817Z,15.80
2018-08-31T03:36:40.723Z,15.80
2018-08-31T03:39:09.587Z,15.70
2018-08-31T03:41:37.786Z,15.70
2018-08-31T03:44:05.752Z,15.70
2018-08-31T03:46:33.391Z,15.70
2018-08-31T03:49:01.393Z,15.70
2018-08-31T03:51:29.107Z,15.70
2018-08-31T03:53:56.707Z,15.70
2018-08-31T03:56:24.227Z,15.70
2018-08-31T03:58:51.921Z,15.70
2018-08-31T04:01:19.558Z,15.70
2018-08-31T04:03:47.149Z,15.70
2018-08-31T04:06:14.738Z,15.60
2018-08-31T04:08:42.374Z,15.50
2018-08-31T04:11:09.980Z,15.50
2018-08-31T04:13:37.552Z,15.60
2018-08-31T04:16:05.112Z,15.60
2018-08-31T04:18:32.644Z,15.60
2018-08-31T04:21:00.310Z,15.60
2018-08-31T04:23:27.839Z,15.70
2018-08-31T04:25:55.549Z,15.70
2018-08-31T04:28:23.108Z,15.70
2018-08-31T04:30:50.824Z,15.70
2018-08-31T04:33:18.415Z,15.70
2018-08-31T04:35:45.924Z,15.70
2018-08-31T04:38:13.434Z,15.70
2018-08-31T04:40:41.077Z,15.70
2018-08-31T04:43:08.688Z,15.60
2018-08-31T04:45:36.381Z,15.60
2018-08-31T04:48:04.131Z,15.50
2018-08-31T04:50:31.748Z,15.60
2018-08-31T04:52:59.282Z,15.50
2018-08-31T04:55:27.017Z,15.60
2018-08-31T04:57:54.899Z,15.70
2018-08-31T05:00:22.589Z,15.70
2018-08-31T05:02:50.216Z,15.70
2018-08-31T05:05:18.174Z,15.70
2018-08-31T05:07:45.731Z,15.70
2018-08-31T05:10:13.236Z,15.70
2018-08-31T05:12:40.787Z,15.70
2018-08-31T05:15:08.399Z,15.70
2018-08-31T05:17:35.934Z,15.70
2018-08-31T05:20:03.967Z,15.60
2018-08-31T05:22:31.670Z,15.50
2018-08-31T05:24:59.394Z,15.50
2018-08-31T05:27:27.047Z,15.60
2018-08-31T05:29:54.708Z,15.60
2018-08-31T05:32:22.462Z,15.60
2018-08-31T05:34:51.203Z,15.70
2018-08-31T05:37:18.703Z,15.70
2018-08-31T05:39:46.406Z,15.70
2018-08-31T05:42:14.037Z,15.80
2018-08-31T05:44:41.556Z,15.70
2018-08-31T05:47:09.084Z,15.80
2018-08-31T05:49:36.815Z,15.80
2018-08-31T05:52:04.487Z,15.80
2018-08-31T05:54:31.991Z,15.80
2018-08-31T05:56:59.627Z,15.80
2018-08-31T05:59:27.203Z,15.80
2018-08-31T06:01:54.915Z,15.80
2018-08-31T06:04:22.459Z,15.80
2018-08-31T06:06:50.040Z,15.80
2018-08-31T06:09:18.512Z,15.80
2018-08-31T06:11:46.131Z,15.90
2018-08-31T06:14:13.653Z,15.90
2018-08-31T06:16:41.321Z,15.90
2018-08-31T06:19:08.892Z,15.90
2018-08-31T06:21:36.575Z,15.90
2018-08-31T06:24:13.066Z,15.90
2018-08-31T06:26:40.654Z,16.00
2018-08-31T06:29:08.210Z,16.00
2018-08-31T06:31:35.785Z,16.00
2018-08-31T06:34:03.429Z,16.00
2018-08-31T06:36:31.010Z,15.90
2018-08-31T06:38:58.559Z,15.90
2018-08-31T06:41:26.140Z,15.80
2018-08-31T06:43:53.748Z,15.60
2018-08-31T06:46:21.318Z,15.60
2018-08-31T06:48:48.900Z,15.60
2018-08-31T06:51:16.561Z,15.70
2018-08-31T06:53:44.112Z,15.60
2018-08-31T06:56:11.672Z,15.50
2018-08-31T06:58:39.238Z,15.50
2018-08-31T07:01:06.916Z,15.50
2018-08-31T07:03:34.609Z,15.50
2018-08-31T07:06:02.188Z,15.40
2018-08-31T07:08:29.803Z,15.40
2018-08-31T07:10:57.378Z,15.40
2018-08-31T07:13:24.944Z,15.50
2018-08-31T07:15:52.507Z,15.60
2018-08-31T07:18:20.143Z,16.00
2018-08-31T07:20:47.791Z,16.10
2018-08-31T07:23:15.493Z,16.20
2018-08-31T07:25:43.069Z,16.30
2018-08-31T07:28:10.626Z,16.30
2018-08-31T07:30:38.196Z,16.30
2018-08-31T07:33:05.791Z,16.30
2018-08-31T07:35:33.388Z,16.30
2018-08-31T07:38:01.028Z,16.40
2018-08-31T07:40:28.606Z,16.40
2018-08-31T07:42:56.172Z,16.50
2018-08-31T07:45:23.807Z,16.50
2018-08-31T07:47:51.565Z,16.50
2018-08-31T07:50:25.897Z,16.60
2018-08-31T07:52:53.448Z,16.90
2018-08-31T07:55:21.010Z,16.90
2018-08-31T07:57:48.535Z,17.00
2018-08-31T08:00:16.083Z,17.10
2018-08-31T08:02:43.623Z,17.40
2018-08-31T08:05:11.257Z,17.60
2018-08-31T08:07:38.809Z,17.70
2018-08-31T08:10:06.448Z,17.80
2018-08-31T08:12:34.108Z,17.90
2018-08-31T08:15:01.678Z,17.90
2018-08-31T08:17:29.404Z,17.90
2018-08-31T08:19:57.150Z,17.90
2018-08-31T08:22:24.892Z,18.00
2018-08-31T08:24:52.515Z,18.00
2018-08-31T08:27:20.053Z,18.10
2018-08-31T08:29:47.628Z,18.10
2018-08-31T08:32:15.205Z,18.10
2018-08-31T08:34:42.802Z,18.10
2018-08-31T08:37:10.479Z,18.10
2018-08-31T08:39:38.132Z,18.10
2018-08-31T08:42:05.771Z,18.10
2018-08-31T08:44:33.417Z,18.20
2018-08-31T08:47:01.022Z,18.30
2018-08-31T08:49:29.094Z,18.30
2018-08-31T08:51:56.787Z,18.30
2018-08-31T08:54:24.658Z,18.30
2018-08-31T08:56:52.246Z,18.50
2018-08-31T08:59:19.845Z,18.50
2018-08-31T09:01:47.415Z,18.50
2018-08-31T09:04:15.001Z,18.40
2018-08-31T09:06:42.628Z,18.40
2018-08-31T09:09:10.596Z,18.40
2018-08-31T09:11:38.464Z,18.30
2018-08-31T09:14:06.457Z,18.40
2018-08-31T09:16:34.045Z,18.40
2018-08-31T09:19:01.682Z,18.40
2018-08-31T09:21:29.248Z,18.50
2018-08-31T09:23:56.917Z,18.40
2018-08-31T09:26:24.491Z,18.50
2018-08-31T09:28:52.047Z,18.50
2018-08-31T09:31:19.667Z,18.40
2018-08-31T09:33:47.325Z,18.40
2018-08-31T09:36:15.006Z,18.30
2018-08-31T09:38:43.049Z,18.30
2018-08-31T09:41:10.664Z,18.30
2018-08-31T09:43:38.223Z,18.30
2018-08-31T09:46:05.997Z,18.20
2018-08-31T09:48:33.600Z,18.20
2018-08-31T09:51:01.219Z,18.10
2018-08-31T09:53:28.773Z,18.10
2018-08-31T09:55:56.608Z,18.10
2018-08-31T09:58:24.776Z,18.10
2018-08-31T10:00:54.175Z,18.10
2018-08-31T10:03:24.239Z,18.00
2018-08-31T10:05:52.993Z,18.00
2018-08-31T10:08:21.325Z,18.00
2018-08-31T10:10:49.002Z,18.00
2018-08-31T10:13:16.613Z,18.00
2018-08-31T10:15:44.259Z,18.10
2018-08-31T10:18:11.849Z,18.10
2018-08-31T10:20:39.545Z,18.10
2018-08-31T10:23:07.131Z,18.20
2018-08-31T10:25:34.996Z,18.20
2018-08-31T10:28:03.062Z,18.20
2018-08-31T10:30:30.786Z,18.20
2018-08-31T10:32:58.396Z,18.20
2018-08-31T10:35:26.042Z,18.30
2018-08-31T10:37:53.987Z,18.20
2018-08-31T10:40:21.704Z,18.20
2018-08-31T10:42:49.293Z,18.20
2018-08-31T10:45:16.870Z,18.10
2018-08-31T10:47:44.517Z,18.00
2018-08-31T10:50:12.182Z,18.00
2018-08-31T10:52:39.864Z,18.00
2018-08-31T10:55:07.517Z,17.90
2018-08-31T10:57:35.400Z,17.90
2018-08-31T11:00:03.229Z,17.90
2018-08-31T11:02:30.772Z,18.00
2018-08-31T11:04:58.308Z,18.00
2018-08-31T11:07:25.912Z,18.00
2018-08-31T11:09:54.013Z,18.00
2018-08-31T11:12:21.638Z,18.00
2018-08-31T11:14:49.330Z,18.00
2018-08-31T11:17:16.929Z,18.00
2018-08-31T11:19:44.485Z,17.90
2018-08-31T11:22:12.097Z,17.90
2018-08-31T11:24:39.708Z,17.90
2018-08-31T11:27:07.581Z,17.90
2018-08-31T11:29:35.184Z,18.00
2018-08-31T11:32:03.201Z,18.10
2018-08-31T11:34:30.768Z,18.10
2018-08-31T11:36:58.330Z,18.20
2018-08-31T11:39:25.892Z,18.20
2018-08-31T11:41:53.525Z,18.20
2018-08-31T11:44:21.114Z,18.30
2018-08-31T11:46:48.784Z,18.20
2018-08-31T11:49:16.411Z,18.20
2018-08-31T11:51:44.285Z,18.20
2018-08-31T11:54:11.915Z,18.20
2018-08-31T11:56:39.545Z,18.10
2018-08-31T11:59:07.130Z,18.10
2018-08-31T12:01:34.830Z,18.10
2018-08-31T12:04:02.433Z,18.10
2018-08-31T12:06:30.031Z,18.10
2018-08-31T12:08:57.623Z,18.10
2018-08-31T12:11:25.372Z,18.10
2018-08-31T12:13:52.976Z,18.20
2018-08-31T12:16:20.610Z,18.20
2018-08-31T12:18:48.260Z,18.30
2018-08-31T12:21:15.831Z,18.30
2018-08-31T12:23:43.395Z,18.40
2018-08-31T12:26:11.042Z,18.40
2018-08-31T12:28:38.635Z,18.50
2018-08-31T12:31:06.227Z,18.50
2018-08-31T12:33:33.909Z,18.50
2018-08-31T12:36:01.514Z,18.50
2018-08-31T12:38:29.084Z,18.40
2018-08-31T12:40:56.667Z,18.20
2018-08-31T12:43:24.248Z,18.00
2018-08-31T12:45:51.846Z,18.00
2018-08-31T12:48:19.452Z,17.90
2018-08-31T12:50:47.061Z,17.80
2018-08-31T12:53:14.726Z,17.80
2018-08-31T12:55:42.288Z,17.80
2018-08-31T12:58:09.867Z,17.90
2018-08-31T13:00:37.421Z,18.00
2018-08-31T13:03:05.139Z,18.00
2018-08-31T13:05:32.728Z,18.10
2018-08-31T13:08:00.296Z,18.20
2018-08-31T13:10:27.846Z,18.20
2018-08-31T13:12:55.575Z,18.30
2018-08-31T13:15:23.155Z,18.40
2018-08-31T13:17:50.767Z,18.40
2018-08-31T13:20:18.408Z,18.40
2018-08-31T13:22:46.188Z,18.40
2018-08-31T13:25:13.824Z,18.40
2018-08-31T13:27:41.381Z,18.30
2018-08-31T13:30:09.030Z,18.30
2018-08-31T13:32:36.605Z,18.40
2018-08-31T13:35:04.184Z,18.40
2018-08-31T13:37:31.748Z,18.40
2018-08-31T13:39:59.372Z,18.40
2018-08-31T13:42:26.907Z,18.30
2018-08-31T13:44:54.487Z,18.20
2018-08-31T13:47:22.075Z,18.20
2018-08-31T13:49:49.816Z,18.20
2018-08-31T13:52:17.446Z,18.20
2018-08-31T13:54:45.009Z,18.20
2018-08-31T13:57:34.701Z,18.30
2018-08-31T14:00:02.376Z,18.40
2018-08-31T14:02:29.977Z,18.50
2018-08-31T14:04:57.563Z,18.60
2018-08-31T14:07:25.173Z,18.70
2018-08-31T14:09:52.780Z,18.70
2018-08-31T14:12:21.183Z,18.90
2018-08-31T14:14:48.716Z,19.00
2018-08-31T14:17:16.294Z,19.00
2018-08-31T14:19:43.846Z,19.10
2018-08-31T14:22:11.428Z,19.20
2018-08-31T14:24:39.005Z,19.40
2018-08-31T14:27:06.646Z,19.50
2018-08-31T14:29:34.307Z,19.60
2018-08-31T14:32:01.886Z,19.70
2018-08-31T14:34:29.555Z,19.80
2018-08-31T14:36:57.092Z,19.90
2018-08-31T14:39:24.674Z,20.00
2018-08-31T14:41:52.220Z,20.20
2018-08-31T14:44:19.826Z,20.30
2018-08-31T14:46:47.390Z,20.40
2018-08-31T14:49:14.998Z,20.50
2018-08-31T14:51:42.611Z,20.60
2018-08-31T14:54:10.240Z,20.60
2018-08-31T14:56:37.846Z,20.60
2018-08-31T14:59:05.447Z,20.70
2018-08-31T15:01:33.094Z,20.60
2018-08-31T15:04:00.696Z,20.60
2018-08-31T15:06:28.307Z,20.50
2018-08-31T15:08:55.872Z,20.40
2018-08-31T15:11:23.435Z,20.40
2018-08-31T15:13:50.977Z,20.50
2018-08-31T15:16:18.555Z,20.60
2018-08-31T15:18:46.175Z,20.70
2018-08-31T15:21:13.807Z,20.90
2018-08-31T15:23:41.370Z,20.90
2018-08-31T15:26:08.948Z,21.00
2018-08-31T15:28:36.527Z,21.00
2018-08-31T15:31:04.143Z,21.00
2018-08-31T15:33:31.687Z,21.10
2018-08-31T15:35:59.316Z,21.10
2018-08-31T15:38:26.852Z,21.10
2018-08-31T15:40:54.364Z,21.10
2018-08-31T15:43:22.273Z,21.00
2018-08-31T15:45:49.938Z,21.00
2018-08-31T15:48:17.566Z,21.10
2018-08-31T15:50:45.282Z,21.00
2018-08-31T15:53:12.910Z,21.10
2018-08-31T15:55:40.527Z,21.20
2018-08-31T15:58:08.205Z,21.30
2018-08-31T16:00:35.769Z,21.40
2018-08-31T16:03:03.348Z,21.40
2018-08-31T16:05:30.908Z,21.40
2018-08-31T16:07:58.509Z,21.30
2018-08-31T16:10:26.576Z,21.20
2018-08-31T16:12:54.175Z,21.20
2018-08-31T16:15:21.763Z,21.20
2018-08-31T16:17:49.339Z,21.10
2018-08-31T16:20:16.969Z,21.10
2018-08-31T16:22:44.561Z,21.10
2018-08-31T16:25:12.200Z,21.10
2018-08-31T16:27:40.101Z,21.10
2018-08-31T16:30:07.734Z,21.20
2018-08-31T16:32:35.340Z,21.10
2018-08-31T16:35:02.977Z,21.10
2018-08-31T16:37:30.551Z,21.10
2018-08-31T16:39:58.084Z,21.10
2018-08-31T16:42:25.723Z,21.00
2018-08-31T16:44:53.300Z,20.90
2018-08-31T16:47:20.913Z,20.60
2018-08-31T16:49:48.506Z,20.40
2018-08-31T16:52:16.096Z,20.10
2018-08-31T16:54:43.740Z,20.00
2018-08-31T16:57:11.308Z,19.80
2018-08-31T16:59:38.868Z,19.60
2018-08-31T17:02:06.493Z,19.60
2018-08-31T17:04:34.092Z,19.40
2018-08-31T17:07:01.677Z,19.20
2018-08-31T17:09:29.245Z,19.10
2018-08-31T17:11:56.792Z,18.90
2018-08-31T17:14:24.388Z,18.70
2018-08-31T17:16:52.056Z,18.60
2018-08-31T17:19:19.626Z,18.50
2018-08-31T17:21:47.232Z,18.40
2018-08-31T17:24:14.798Z,18.30
2018-08-31T17:26:48.105Z,18.30
2018-08-31T17:29:21.487Z,18.30
2018-08-31T17:31:54.704Z,18.30
2018-08-31T17:34:28.019Z,18.20
2018-08-31T17:37:01.324Z,18.20
2018-08-31T17:39:29.014Z,18.20
2018-08-31T17:41:56.629Z,18.10
2018-08-31T17:44:24.543Z,18.00
2018-08-31T17:46:52.143Z,17.90
2018-08-31T17:49:19.804Z,17.90
2018-08-31T17:51:47.473Z,17.80
2018-08-31T17:54:15.071Z,17.80
2018-08-31T17:56:42.681Z,17.70
2018-08-31T17:59:10.289Z,17.70
2018-08-31T18:01:37.867Z,17.60
2018-08-31T18:04:05.505Z,17.60
2018-08-31T18:06:33.021Z,17.50
2018-08-31T18:09:00.584Z,17.50
2018-08-31T18:11:28.215Z,17.40
2018-08-31T18:13:55.793Z,17.40
2018-08-31T18:16:23.447Z,17.40
2018-08-31T18:18:50.939Z,17.40
2018-08-31T18:21:18.542Z,17.40
2018-08-31T18:23:46.085Z,17.40
2018-08-31T18:26:13.663Z,17.40
2018-08-31T18:28:41.228Z,17.40
2018-08-31T18:31:08.772Z,17.40
2018-08-31T18:33:36.307Z,17.30
2018-08-31T18:36:03.915Z,17.30
2018-08-31T18:38:31.461Z,17.30
2018-08-31T18:40:59.052Z,17.30
2018-08-31T18:43:26.601Z,17.20
2018-08-31T18:45:54.129Z,17.20
2018-08-31T18:48:21.709Z,17.20
2018-08-31T18:50:49.279Z,17.10
2018-08-31T18:53:16.840Z,17.10
2018-08-31T18:55:44.405Z,17.10
2018-08-31T18:58:12.005Z,17.10
2018-08-31T19:00:39.591Z,17.10
2018-08-31T19:03:07.099Z,17.10
2018-08-31T19:05:34.641Z,17.10
2018-08-31T19:08:02.305Z,17.10
2018-08-31T19:10:29.881Z,17.10
2018-08-31T19:12:57.505Z,17.10
2018-08-31T19:15:25.846Z,17.10
2018-08-31T19:17:53.415Z,17.00
2018-08-31T19:20:20.993Z,17.00
2018-08-31T19:22:48.589Z,16.90
2018-08-31T19:25:16.165Z,16.90
2018-08-31T19:27:43.740Z,16.80
2018-08-31T19:30:11.325Z,16.70
2018-08-31T19:32:38.880Z,16.70
2018-08-31T19:35:06.553Z,16.60
2018-08-31T19:37:34.188Z,16.60
2018-08-31T19:40:01.797Z,16.90
2018-08-31T19:42:29.441Z,17.00
2018-08-31T19:44:57.088Z,17.00
2018-08-31T19:47:24.791Z,16.90
2018-08-31T19:49:52.803Z,16.80
2018-08-31T19:52:20.389Z,16.70
2018-08-31T19:54:47.979Z,16.60
2018-08-31T19:57:15.559Z,16.50
2018-08-31T19:59:43.154Z,16.40
2018-08-31T20:02:10.829Z,16.40
2018-08-31T20:04:38.472Z,16.30
2018-08-31T20:07:06.141Z,16.20
2018-08-31T20:09:33.788Z,16.10
2018-08-31T20:12:01.456Z,16.00
2018-08-31T20:14:29.279Z,15.90
2018-08-31T20:16:56.925Z,15.90
2018-08-31T20:19:24.601Z,15.80
2018-08-31T20:21:52.193Z,15.70
2018-08-31T20:24:19.783Z,15.70
2018-08-31T20:26:47.747Z,15.60
2018-08-31T20:29:15.392Z,15.50
2018-08-31T20:31:42.989Z,15.50
2018-08-31T20:34:10.618Z,15.50
2018-08-31T20:36:38.320Z,15.50
2018-08-31T20:39:07.709Z,15.50
2018-08-31T20:41:35.349Z,15.50
2018-08-31T20:44:02.905Z,15.50
2018-08-31T20:46:30.485Z,15.60
2018-08-31T20:48:58.474Z,15.60
2018-08-31T20:51:26.116Z,15.60
2018-08-31T20:53:53.741Z,15.50
2018-08-31T20:56:21.691Z,15.50
2018-08-31T20:58:49.245Z,15.50
2018-08-31T21:01:16.957Z,15.60
2018-08-31T21:03:44.724Z,15.60
2018-08-31T21:06:12.391Z,15.70
2018-08-31T21:08:40.115Z,15.70
2018-08-31T21:11:07.886Z,15.70
2018-08-31T21:13:35.588Z,15.80
2018-08-31T21:16:03.224Z,15.80
2018-08-31T21:18:30.818Z,15.80
2018-08-31T21:20:58.346Z,15.90
2018-08-31T21:23:26.071Z,15.90
2018-08-31T21:25:53.813Z,15.80
2018-08-31T21:28:21.432Z,15.90
2018-08-31T21:30:49.132Z,15.80
2018-08-31T21:33:16.838Z,15.80
2018-08-31T21:35:44.451Z,15.80
2018-08-31T21:38:12.165Z,15.80
2018-08-31T21:40:39.877Z,15.80
2018-08-31T21:43:07.507Z,15.80
2018-08-31T21:45:35.137Z,15.80
2018-08-31T21:48:03.005Z,15.80
2018-08-31T21:50:30.674Z,15.80
2018-08-31T21:52:58.209Z,15.80
2018-08-31T21:55:26.283Z,15.80
2018-08-31T21:57:53.815Z,15.80
2018-08-31T22:00:22.009Z,15.80
2018-08-31T22:02:50.390Z,15.80
2018-08-31T22:05:18.348Z,15.80
2018-08-31T22:07:46.620Z,15.80
2018-08-31T22:10:14.826Z,15.80
2018-08-31T22:12:42.949Z,15.70
2018-08-31T22:15:16.172Z,15.70
2018-08-31T22:17:43.922Z,15.70
2018-08-31T22:20:11.687Z,15.60
2018-08-31T22:22:39.621Z,15.60
2018-08-31T22:25:07.524Z,15.60
2018-08-31T22:27:35.172Z,15.50
2018-08-31T22:30:03.159Z,15.40
2018-08-31T22:32:30.915Z,15.40
2018-08-31T22:34:58.587Z,15.40
2018-08-31T22:37:26.405Z,15.40
2018-08-31T22:39:54.067Z,15.40
2018-08-31T22:42:21.717Z,15.40
2018-08-31T22:44:49.268Z,15.30
2018-08-31T22:47:17.105Z,15.30
2018-08-31T22:49:44.744Z,15.30
2018-08-31T22:52:12.414Z,15.20
2018-08-31T22:54:40.071Z,15.20
2018-08-31T22:57:07.600Z,15.10
2018-08-31T22:59:35.238Z,15.10
2018-08-31T23:02:03.175Z,15.10
2018-08-31T23:04:30.859Z,15.10
2018-08-31T23:06:58.497Z,15.10
2018-08-31T23:09:26.088Z,15.10
2018-08-31T23:11:53.795Z,15.10
2018-08-31T23:14:21.425Z,15.10
2018-08-31T23:16:49.241Z,15.10
2018-08-31T23:19:16.795Z,15.10
2018-08-31T23:21:44.500Z,15.20
2018-08-31T23:24:12.048Z,15.20
2018-08-31T23:26:39.769Z,15.20
2018-08-31T23:29:07.448Z,15.20
2018-08-31T23:31:35.121Z,15.30
2018-08-31T23:34:02.991Z,15.30
2018-08-31T23:36:30.697Z,15.30
2018-08-31T23:38:58.441Z,15.30
2018-08-31T23:41:25.963Z,15.30
2018-08-31T23:43:53.500Z,15.40
2018-08-31T23:46:21.665Z,15.30
2018-08-31T23:48:49.192Z,15.30
2018-08-31T23:51:16.804Z,15.30
2018-08-31T23:53:44.318Z,15.30
2018-08-31T23:56:11.939Z,15.30
2018-08-31T23:58:39.752Z,15.20
